sensor_id;sensor_type;location;lat;lon;timestamp;pressure;altitude;pressure_sealevel;temperature;humidity
58245;BME280;44550;43.864;25.986;2023-04-27T00:01:24;100801.53;;;8.84;100.00
58245;BME280;44550;43.864;25.986;2023-04-27T00:05:24;100797.94;;;8.77;100.00
58245;BME280;44550;43.864;25.986;2023-04-27T00:09:26;100803.16;;;8.77;100.00
58245;BME280;44550;43.864;25.986;2023-04-27T00:13:26;100803.97;;;8.72;100.00
58245;BME280;44550;43.864;25.986;2023-04-27T00:17:30;100804.84;;;8.74;100.00
58245;BME280;44550;43.864;25.986;2023-04-27T00:21:30;100805.72;;;8.71;100.00
58245;BME280;44550;43.864;25.986;2023-04-27T00:25:33;100805.88;;;8.82;100.00
58245;BME280;44550;43.864;25.986;2023-04-27T00:29:33;100811.94;;;8.82;100.00
58245;BME280;44550;43.864;25.986;2023-04-27T00:33:33;100812.97;;;8.93;100.00
58245;BME280;44550;43.864;25.986;2023-04-27T00:37:33;100812.16;;;8.96;100.00
58245;BME280;44550;43.864;25.986;2023-04-27T00:41:37;100811.28;;;8.94;100.00
58245;BME280;44550;43.864;25.986;2023-04-27T00:45:38;100816.53;;;9.00;100.00
58245;BME280;44550;43.864;25.986;2023-04-27T00:49:41;100811.38;;;9.03;100.00
58245;BME280;44550;43.864;25.986;2023-04-27T00:53:40;100815.72;;;9.01;100.00
58245;BME280;44550;43.864;25.986;2023-04-27T00:57:44;100811.38;;;9.02;100.00
58245;BME280;44550;43.864;25.986;2023-04-27T01:01:45;100811.31;;;8.99;100.00
58245;BME280;44550;43.864;25.986;2023-04-27T01:05:47;100811.34;;;9.00;100.00
58245;BME280;44550;43.864;25.986;2023-04-27T01:09:55;100817.47;;;9.02;100.00
58245;BME280;44550;43.864;25.986;2023-04-27T01:13:57;100817.41;;;8.99;100.00
58245;BME280;44550;43.864;25.986;2023-04-27T01:18:02;100818.25;;;8.97;100.00
58245;BME280;44550;43.864;25.986;2023-04-27T01:22:04;100814.75;;;8.96;100.00
58245;BME280;44550;43.864;25.986;2023-04-27T01:26:12;100823.34;;;8.89;100.00
58245;BME280;44550;43.864;25.986;2023-04-27T01:30:16;100844.31;;;8.97;100.00
58245;BME280;44550;43.864;25.986;2023-04-27T01:34:16;100846.88;;;8.92;100.00
58245;BME280;44550;43.864;25.986;2023-04-27T01:38:17;100853.66;;;8.82;100.00
58245;BME280;44550;43.864;25.986;2023-04-27T01:42:25;100848.47;;;8.84;100.00
58245;BME280;44550;43.864;25.986;2023-04-27T01:46:25;100850.34;;;8.92;100.00
58245;BME280;44550;43.864;25.986;2023-04-27T01:50:25;100857.28;;;8.92;100.00
58245;BME280;44550;43.864;25.986;2023-04-27T01:54:25;100865.03;;;8.86;100.00
58245;BME280;44550;43.864;25.986;2023-04-27T01:58:30;100866.03;;;8.94;100.00
58245;BME280;44550;43.864;25.986;2023-04-27T02:02:31;100871.25;;;8.97;99.27
58245;BME280;44550;43.864;25.986;2023-04-27T02:06:32;100874.53;;;8.82;100.00
58245;BME280;44550;43.864;25.986;2023-04-27T02:10:37;100884.19;;;8.89;100.00
58245;BME280;44550;43.864;25.986;2023-04-27T02:14:41;100875.50;;;8.90;100.00
58245;BME280;44550;43.864;25.986;2023-04-27T02:18:41;100888.75;;;9.01;99.77
58245;BME280;44550;43.864;25.986;2023-04-27T02:22:42;100879.75;;;8.84;100.00
58245;BME280;44550;43.864;25.986;2023-04-27T02:26:42;100891.09;;;8.84;100.00
58245;BME280;44550;43.864;25.986;2023-04-27T02:30:44;100886.84;;;8.92;100.00
58245;BME280;44550;43.864;25.986;2023-04-27T02:34:45;100898.00;;;8.84;100.00
58245;BME280;44550;43.864;25.986;2023-04-27T02:38:45;100901.47;;;8.83;100.00
58245;BME280;44550;43.864;25.986;2023-04-27T02:42:48;100900.59;;;8.84;100.00
58245;BME280;44550;43.864;25.986;2023-04-27T02:46:50;100907.56;;;8.82;100.00
58245;BME280;44550;43.864;25.986;2023-04-27T02:50:50;100901.47;;;8.83;100.00
58245;BME280;44550;43.864;25.986;2023-04-27T02:54:53;100905.81;;;8.84;100.00
58245;BME280;44550;43.864;25.986;2023-04-27T02:59:01;100912.97;;;8.96;100.00
58245;BME280;44550;43.864;25.986;2023-04-27T03:03:04;100916.56;;;9.02;100.00
58245;BME280;44550;43.864;25.986;2023-04-27T03:07:04;100920.09;;;9.04;100.00
58245;BME280;44550;43.864;25.986;2023-04-27T03:11:05;100922.59;;;9.00;100.00
58245;BME280;44550;43.864;25.986;2023-04-27T03:15:06;100932.88;;;8.89;99.68
58245;BME280;44550;43.864;25.986;2023-04-27T03:19:17;100936.50;;;8.99;100.00
58245;BME280;44550;43.864;25.986;2023-04-27T03:23:26;100944.13;;;8.86;100.00
58245;BME280;44550;43.864;25.986;2023-04-27T03:27:26;100955.63;;;8.98;99.15
58245;BME280;44550;43.864;25.986;2023-04-27T03:31:26;100973.41;;;9.23;99.85
58245;BME280;44550;43.864;25.986;2023-04-27T03:35:31;100968.75;;;9.60;98.46
58245;BME280;44550;43.864;25.986;2023-04-27T03:39:33;100977.63;;;9.71;96.34
58245;BME280;44550;43.864;25.986;2023-04-27T03:43:38;100980.19;;;9.70;95.96
58245;BME280;44550;43.864;25.986;2023-04-27T03:47:49;100990.84;;;9.82;93.92
58245;BME280;44550;43.864;25.986;2023-04-27T03:51:56;100990.28;;;10.06;96.21
58245;BME280;44550;43.864;25.986;2023-04-27T03:56:00;100995.09;;;10.41;95.05
58245;BME280;44550;43.864;25.986;2023-04-27T04:00:12;100985.44;;;10.33;92.32
58245;BME280;44550;43.864;25.986;2023-04-27T04:04:15;100996.19;;;9.91;95.90
58245;BME280;44550;43.864;25.986;2023-04-27T04:08:18;100996.16;;;9.89;98.54
58245;BME280;44550;43.864;25.986;2023-04-27T04:12:18;101003.75;;;9.71;97.70
58245;BME280;44550;43.864;25.986;2023-04-27T04:16:22;101001.19;;;9.76;99.22
58245;BME280;44550;43.864;25.986;2023-04-27T04:20:25;101016.81;;;9.73;98.78
58245;BME280;44550;43.864;25.986;2023-04-27T04:24:27;101018.81;;;9.91;97.28
58245;BME280;44550;43.864;25.986;2023-04-27T04:28:28;101010.13;;;9.93;98.58
58245;BME280;44550;43.864;25.986;2023-04-27T04:32:28;101017.81;;;9.81;96.52
58245;BME280;44550;43.864;25.986;2023-04-27T04:36:30;101016.13;;;9.86;96.39
58245;BME280;44550;43.864;25.986;2023-04-27T04:40:36;101024.78;;;9.82;93.70
58245;BME280;44550;43.864;25.986;2023-04-27T04:44:36;101023.00;;;9.79;95.07
58245;BME280;44550;43.864;25.986;2023-04-27T04:48:38;101023.56;;;9.60;95.18
58245;BME280;44550;43.864;25.986;2023-04-27T04:52:40;101027.13;;;9.63;95.09
58245;BME280;44550;43.864;25.986;2023-04-27T04:56:46;101026.13;;;9.54;95.87
58245;BME280;44550;43.864;25.986;2023-04-27T05:00:47;101032.25;;;9.57;94.30
58245;BME280;44550;43.864;25.986;2023-04-27T05:04:49;101028.88;;;9.64;94.99
58245;BME280;44550;43.864;25.986;2023-04-27T05:08:50;101031.34;;;9.54;94.80
58245;BME280;44550;43.864;25.986;2023-04-27T05:12:53;101032.97;;;9.47;96.37
58245;BME280;44550;43.864;25.986;2023-04-27T05:16:53;101038.84;;;9.35;95.36
58245;BME280;44550;43.864;25.986;2023-04-27T05:20:53;101033.84;;;9.49;95.45
58245;BME280;44550;43.864;25.986;2023-04-27T05:24:54;101037.34;;;9.50;94.34
58245;BME280;44550;43.864;25.986;2023-04-27T05:28:57;101032.44;;;9.70;93.30
58245;BME280;44550;43.864;25.986;2023-04-27T05:32:59;101036.19;;;9.31;93.92
58245;BME280;44550;43.864;25.986;2023-04-27T05:37:03;101040.81;;;9.50;92.81
58245;BME280;44550;43.864;25.986;2023-04-27T05:41:04;101049.06;;;9.75;92.26
58245;BME280;44550;43.864;25.986;2023-04-27T05:45:07;101046.94;;;10.08;92.32
58245;BME280;44550;43.864;25.986;2023-04-27T05:49:08;101049.66;;;10.18;88.51
58245;BME280;44550;43.864;25.986;2023-04-27T05:53:08;101049.28;;;9.90;86.65
58245;BME280;44550;43.864;25.986;2023-04-27T05:57:18;101048.44;;;9.91;88.64
58245;BME280;44550;43.864;25.986;2023-04-27T06:01:22;101057.66;;;9.68;86.80
58245;BME280;44550;43.864;25.986;2023-04-27T06:05:24;101058.78;;;9.86;88.25
58245;BME280;44550;43.864;25.986;2023-04-27T06:09:24;101061.41;;;9.85;91.04
58245;BME280;44550;43.864;25.986;2023-04-27T06:13:29;101065.56;;;9.72;89.36
58245;BME280;44550;43.864;25.986;2023-04-27T06:17:35;101057.59;;;9.64;92.80
58245;BME280;44550;43.864;25.986;2023-04-27T06:21:38;101064.47;;;9.58;94.62
58245;BME280;44550;43.864;25.986;2023-04-27T06:25:38;101059.97;;;9.49;97.20
58245;BME280;44550;43.864;25.986;2023-04-27T06:29:38;101064.56;;;9.65;96.97
58245;BME280;44550;43.864;25.986;2023-04-27T06:33:40;101067.44;;;9.81;96.71
58245;BME280;44550;43.864;25.986;2023-04-27T06:37:40;101065.41;;;9.63;95.34
58245;BME280;44550;43.864;25.986;2023-04-27T06:41:41;101063.91;;;9.79;96.48
58245;BME280;44550;43.864;25.986;2023-04-27T06:45:45;101066.22;;;10.18;95.14
58245;BME280;44550;43.864;25.986;2023-04-27T06:49:47;101069.66;;;10.14;93.13
58245;BME280;44550;43.864;25.986;2023-04-27T06:53:58;101070.25;;;9.96;90.53
58245;BME280;44550;43.864;25.986;2023-04-27T06:57:58;101080.22;;;10.22;90.88
58245;BME280;44550;43.864;25.986;2023-04-27T07:01:58;101077.59;;;10.20;89.79
58245;BME280;44550;43.864;25.986;2023-04-27T07:06:00;101083.25;;;10.51;88.43
58245;BME280;44550;43.864;25.986;2023-04-27T07:10:01;101085.34;;;10.82;86.56
58245;BME280;44550;43.864;25.986;2023-04-27T07:14:00;101082.44;;;10.56;85.12
58245;BME280;44550;43.864;25.986;2023-04-27T07:18:00;101081.06;;;10.86;85.09
58245;BME280;44550;43.864;25.986;2023-04-27T07:22:03;101077.75;;;11.05;83.37
58245;BME280;44550;43.864;25.986;2023-04-27T07:26:10;101080.63;;;11.32;84.97
58245;BME280;44550;43.864;25.986;2023-04-27T07:30:10;101080.91;;;11.65;81.54
58245;BME280;44550;43.864;25.986;2023-04-27T07:34:10;101089.09;;;12.08;78.91
58245;BME280;44550;43.864;25.986;2023-04-27T07:38:13;101098.72;;;12.06;76.92
58245;BME280;44550;43.864;25.986;2023-04-27T07:42:14;101090.94;;;12.20;78.04
58245;BME280;44550;43.864;25.986;2023-04-27T07:46:15;101099.72;;;12.31;78.78
58245;BME280;44550;43.864;25.986;2023-04-27T07:50:15;101101.63;;;12.64;76.52
58245;BME280;44550;43.864;25.986;2023-04-27T07:54:22;101100.81;;;12.84;74.75
58245;BME280;44550;43.864;25.986;2023-04-27T07:58:32;101107.91;;;13.14;73.45
58245;BME280;44550;43.864;25.986;2023-04-27T08:02:33;101104.47;;;13.26;72.22
58245;BME280;44550;43.864;25.986;2023-04-27T08:06:36;101109.66;;;13.03;69.09
58245;BME280;44550;43.864;25.986;2023-04-27T08:10:39;101113.97;;;12.82;71.21
58245;BME280;44550;43.864;25.986;2023-04-27T08:14:41;101106.84;;;12.61;69.30
58245;BME280;44550;43.864;25.986;2023-04-27T08:18:44;101108.56;;;12.50;72.12
58245;BME280;44550;43.864;25.986;2023-04-27T08:22:45;101105.66;;;12.01;72.22
58245;BME280;44550;43.864;25.986;2023-04-27T08:26:50;101110.81;;;11.87;73.15
58245;BME280;44550;43.864;25.986;2023-04-27T08:30:50;101110.22;;;12.31;70.91
58245;BME280;44550;43.864;25.986;2023-04-27T08:34:50;101112.72;;;12.11;69.70
58245;BME280;44550;43.864;25.986;2023-04-27T08:38:52;101106.69;;;12.28;70.82
58245;BME280;44550;43.864;25.986;2023-04-27T08:42:55;101113.06;;;12.88;69.04
58245;BME280;44550;43.864;25.986;2023-04-27T08:46:55;101119.34;;;13.37;66.53
58245;BME280;44550;43.864;25.986;2023-04-27T08:50:55;101111.50;;;13.60;66.57
58245;BME280;44550;43.864;25.986;2023-04-27T08:54:59;101110.63;;;13.74;64.87
58245;BME280;44550;43.864;25.986;2023-04-27T08:59:02;101108.91;;;13.54;65.96
58245;BME280;44550;43.864;25.986;2023-04-27T09:03:04;101108.88;;;13.80;65.62
58245;BME280;44550;43.864;25.986;2023-04-27T09:07:11;101108.03;;;13.68;64.59
58245;BME280;44550;43.864;25.986;2023-04-27T09:11:11;101106.25;;;13.50;67.35
58245;BME280;44550;43.864;25.986;2023-04-27T09:15:14;101093.97;;;13.73;65.03
58245;BME280;44550;43.864;25.986;2023-04-27T09:19:22;101092.22;;;13.80;66.44
58245;BME280;44550;43.864;25.986;2023-04-27T09:23:27;101085.19;;;14.17;63.35
58245;BME280;44550;43.864;25.986;2023-04-27T09:27:28;101089.41;;;14.70;61.08
58245;BME280;44550;43.864;25.986;2023-04-27T09:31:33;101084.81;;;15.04;62.11
58245;BME280;44550;43.864;25.986;2023-04-27T09:35:33;101087.38;;;15.18;62.10
58245;BME280;44550;43.864;25.986;2023-04-27T09:39:33;101078.38;;;15.45;60.27
58245;BME280;44550;43.864;25.986;2023-04-27T09:43:33;101083.13;;;14.97;57.42
58245;BME280;44550;43.864;25.986;2023-04-27T09:47:39;101079.88;;;14.26;61.55
58245;BME280;44550;43.864;25.986;2023-04-27T09:51:39;101078.19;;;13.96;62.26
58245;BME280;44550;43.864;25.986;2023-04-27T09:55:40;101073.81;;;13.83;63.60
58245;BME280;44550;43.864;25.986;2023-04-27T09:59:51;101066.81;;;13.93;62.47
58245;BME280;44550;43.864;25.986;2023-04-27T10:08:19;101078.25;;;13.55;62.15
58245;BME280;44550;43.864;25.986;2023-04-27T10:12:20;101070.31;;;13.90;63.54
58245;BME280;44550;43.864;25.986;2023-04-27T10:16:20;101065.81;;;14.41;60.63
58245;BME280;44550;43.864;25.986;2023-04-27T10:20:27;101057.91;;;14.38;61.26
58245;BME280;44550;43.864;25.986;2023-04-27T10:24:34;101065.06;;;13.92;61.94
58245;BME280;44550;43.864;25.986;2023-04-27T10:28:36;101067.63;;;14.19;63.06
58245;BME280;44550;43.864;25.986;2023-04-27T10:32:48;101074.66;;;14.11;62.23
58245;BME280;44550;43.864;25.986;2023-04-27T10:36:48;101072.03;;;14.08;65.04
58245;BME280;44550;43.864;25.986;2023-04-27T10:40:55;101064.19;;;13.97;61.62
58245;BME280;44550;43.864;25.986;2023-04-27T10:44:58;101068.59;;;13.81;61.38
58245;BME280;44550;43.864;25.986;2023-04-27T10:48:58;101073.72;;;14.29;61.13
58245;BME280;44550;43.864;25.986;2023-04-27T10:52:58;101068.31;;;14.72;61.35
58245;BME280;44550;43.864;25.986;2023-04-27T10:57:05;101072.56;;;14.99;59.88
58245;BME280;44550;43.864;25.986;2023-04-27T11:01:05;101075.38;;;14.65;61.10
58245;BME280;44550;43.864;25.986;2023-04-27T11:05:14;101074.56;;;14.45;59.51
58245;BME280;44550;43.864;25.986;2023-04-27T11:09:23;101068.41;;;14.43;59.68
58245;BME280;44550;43.864;25.986;2023-04-27T11:13:27;101062.25;;;14.53;59.52
58245;BME280;44550;43.864;25.986;2023-04-27T11:17:30;101059.38;;;15.02;60.50
58245;BME280;44550;43.864;25.986;2023-04-27T11:21:30;101051.25;;;15.33;58.39
58245;BME280;44550;43.864;25.986;2023-04-27T11:25:30;101057.72;;;14.86;59.88
58245;BME280;44550;43.864;25.986;2023-04-27T11:29:38;101057.59;;;15.07;60.82
58245;BME280;44550;43.864;25.986;2023-04-27T11:33:38;101050.03;;;15.80;57.93
58245;BME280;44550;43.864;25.986;2023-04-27T11:37:55;101052.84;;;15.52;56.90
58245;BME280;44550;43.864;25.986;2023-04-27T11:41:55;101058.56;;;16.02;54.06
58245;BME280;44550;43.864;25.986;2023-04-27T11:45:57;101053.25;;;16.05;56.11
58245;BME280;44550;43.864;25.986;2023-04-27T11:49:59;101049.03;;;15.88;54.10
58245;BME280;44550;43.864;25.986;2023-04-27T11:54:00;101038.78;;;16.41;53.18
58245;BME280;44550;43.864;25.986;2023-04-27T11:58:01;101037.88;;;16.42;54.83
58245;BME280;44550;43.864;25.986;2023-04-27T12:02:02;101029.69;;;15.91;55.12
58245;BME280;44550;43.864;25.986;2023-04-27T12:06:02;101029.59;;;16.00;54.96
58245;BME280;44550;43.864;25.986;2023-04-27T12:10:23;101028.16;;;15.70;55.75
58245;BME280;44550;43.864;25.986;2023-04-27T12:14:23;101024.66;;;15.66;56.05
58245;BME280;44550;43.864;25.986;2023-04-27T12:18:25;101024.75;;;15.51;57.13
58245;BME280;44550;43.864;25.986;2023-04-27T12:22:26;101020.00;;;15.91;55.13
58245;BME280;44550;43.864;25.986;2023-04-27T12:26:25;101026.41;;;15.67;56.39
58245;BME280;44550;43.864;25.986;2023-04-27T12:30:32;101018.41;;;15.77;56.67
58245;BME280;44550;43.864;25.986;2023-04-27T12:34:35;101016.81;;;15.52;58.47
58245;BME280;44550;43.864;25.986;2023-04-27T12:38:35;101018.34;;;15.83;56.27
58245;BME280;44550;43.864;25.986;2023-04-27T12:42:35;101014.25;;;16.31;53.44
58245;BME280;44550;43.864;25.986;2023-04-27T12:46:35;101012.66;;;16.19;54.02
58245;BME280;44550;43.864;25.986;2023-04-27T12:50:37;101003.38;;;16.59;52.35
58245;BME280;44550;43.864;25.986;2023-04-27T12:54:38;101002.34;;;16.69;53.70
58245;BME280;44550;43.864;25.986;2023-04-27T12:58:38;101000.00;;;16.46;50.99
58245;BME280;44550;43.864;25.986;2023-04-27T13:02:38;101003.63;;;16.37;52.56
58245;BME280;44550;43.864;25.986;2023-04-27T13:06:41;100996.34;;;16.55;53.59
58245;BME280;44550;43.864;25.986;2023-04-27T13:10:41;100989.94;;;16.74;53.30
58245;BME280;44550;43.864;25.986;2023-04-27T13:14:41;100984.78;;;16.65;52.89
58245;BME280;44550;43.864;25.986;2023-04-27T13:18:42;100967.19;;;16.64;51.27
58245;BME280;44550;43.864;25.986;2023-04-27T13:22:47;100981.81;;;16.89;51.42
58245;BME280;44550;43.864;25.986;2023-04-27T13:26:47;100981.81;;;16.89;52.02
58245;BME280;44550;43.864;25.986;2023-04-27T13:30:47;100983.78;;;16.74;51.33
58245;BME280;44550;43.864;25.986;2023-04-27T13:34:47;100987.44;;;16.63;51.25
58245;BME280;44550;43.864;25.986;2023-04-27T13:38:49;100977.56;;;16.79;50.91
58245;BME280;44550;43.864;25.986;2023-04-27T13:42:49;100987.44;;;16.62;50.60
58245;BME280;44550;43.864;25.986;2023-04-27T13:46:49;100977.88;;;17.15;49.13
58245;BME280;44550;43.864;25.986;2023-04-27T13:50:49;100971.81;;;17.59;49.31
58245;BME280;44550;43.864;25.986;2023-04-27T13:54:52;100977.94;;;17.63;49.57
58245;BME280;44550;43.864;25.986;2023-04-27T13:58:51;100975.41;;;17.06;48.85
58245;BME280;44550;43.864;25.986;2023-04-27T14:02:51;100975.13;;;17.23;49.28
58245;BME280;44550;43.864;25.986;2023-04-27T14:06:51;100973.25;;;17.28;47.82
58245;BME280;44550;43.864;25.986;2023-04-27T14:10:53;100972.19;;;17.38;48.29
58245;BME280;44550;43.864;25.986;2023-04-27T14:14:54;100981.19;;;17.77;47.66
58245;BME280;44550;43.864;25.986;2023-04-27T14:18:55;100980.06;;;17.41;48.52
58245;BME280;44550;43.864;25.986;2023-04-27T14:22:55;100980.91;;;16.92;48.30
58245;BME280;44550;43.864;25.986;2023-04-27T14:26:57;100974.25;;;17.21;47.74
58245;BME280;44550;43.864;25.986;2023-04-27T14:30:57;100982.91;;;16.72;49.08
58245;BME280;44550;43.864;25.986;2023-04-27T14:34:57;100985.78;;;17.15;48.47
58245;BME280;44550;43.864;25.986;2023-04-27T14:38:57;100978.06;;;17.04;49.92
58245;BME280;44550;43.864;25.986;2023-04-27T14:43:00;100980.88;;;16.94;49.14
58245;BME280;44550;43.864;25.986;2023-04-27T14:47:00;100977.72;;;17.26;49.53
58245;BME280;44550;43.864;25.986;2023-04-27T14:51:00;100973.34;;;17.73;47.95
58245;BME280;44550;43.864;25.986;2023-04-27T14:55:02;100971.91;;;17.55;48.56
58245;BME280;44550;43.864;25.986;2023-04-27T14:59:05;100986.50;;;17.76;45.40
58245;BME280;44550;43.864;25.986;2023-04-27T15:03:06;100985.28;;;17.95;45.14
58245;BME280;44550;43.864;25.986;2023-04-27T15:07:06;100985.41;;;17.88;46.06
58245;BME280;44550;43.864;25.986;2023-04-27T15:11:09;100976.66;;;17.86;46.85
58245;BME280;44550;43.864;25.986;2023-04-27T15:15:11;100984.50;;;17.41;47.83
58245;BME280;44550;43.864;25.986;2023-04-27T15:19:11;100984.06;;;17.16;48.53
58245;BME280;44550;43.864;25.986;2023-04-27T15:23:16;100992.25;;;16.99;49.87
58245;BME280;44550;43.864;25.986;2023-04-27T15:27:20;100993.38;;;16.81;50.09
58245;BME280;44550;43.864;25.986;2023-04-27T15:31:23;100994.13;;;16.92;50.86
58245;BME280;44550;43.864;25.986;2023-04-27T15:35:27;100993.03;;;17.04;51.29
58245;BME280;44550;43.864;25.986;2023-04-27T15:39:55;100992.25;;;16.99;51.84
58245;BME280;44550;43.864;25.986;2023-04-27T15:48:32;101000.59;;;15.95;54.07
58245;BME280;44550;43.864;25.986;2023-04-27T15:52:33;101007.72;;;15.89;54.54
58245;BME280;44550;43.864;25.986;2023-04-27T15:56:34;101010.28;;;15.95;55.26
58245;BME280;44550;43.864;25.986;2023-04-27T16:00:34;101005.69;;;16.14;55.45
58245;BME280;44550;43.864;25.986;2023-04-27T16:04:43;101020.47;;;16.26;54.68
58245;BME280;44550;43.864;25.986;2023-04-27T16:08:44;101021.91;;;16.53;54.16
58245;BME280;44550;43.864;25.986;2023-04-27T16:12:47;101026.19;;;16.61;54.95
58245;BME280;44550;43.864;25.986;2023-04-27T16:16:48;101027.91;;;16.64;55.14
58245;BME280;44550;43.864;25.986;2023-04-27T16:20:54;101036.91;;;16.51;55.97
58245;BME280;44550;43.864;25.986;2023-04-27T16:24:55;101032.09;;;16.83;55.73
58245;BME280;44550;43.864;25.986;2023-04-27T16:28:56;101034.25;;;17.16;54.95
58245;BME280;44550;43.864;25.986;2023-04-27T16:33:07;101050.97;;;17.14;54.45
58245;BME280;44550;43.864;25.986;2023-04-27T16:37:13;101065.22;;;17.04;55.00
58245;BME280;44550;43.864;25.986;2023-04-27T16:41:14;101069.81;;;16.19;54.90
58245;BME280;44550;43.864;25.986;2023-04-27T16:45:16;101075.88;;;15.32;55.77
58245;BME280;44550;43.864;25.986;2023-04-27T16:49:29;101091.84;;;15.06;57.43
58245;BME280;44550;43.864;25.986;2023-04-27T16:58:14;101092.09;;;14.53;60.81
58245;BME280;44550;43.864;25.986;2023-04-27T17:02:14;101093.94;;;14.12;62.32
58245;BME280;44550;43.864;25.986;2023-04-27T17:06:22;101098.38;;;13.65;63.05
58245;BME280;44550;43.864;25.986;2023-04-27T17:10:22;101103.63;;;13.65;64.33
58245;BME280;44550;43.864;25.986;2023-04-27T17:14:24;101104.47;;;13.47;65.39
58245;BME280;44550;43.864;25.986;2023-04-27T17:18:24;101108.00;;;13.42;66.83
58245;BME280;44550;43.864;25.986;2023-04-27T17:22:28;101105.31;;;13.15;67.91
58245;BME280;44550;43.864;25.986;2023-04-27T17:26:31;101107.88;;;13.03;69.40
58245;BME280;44550;43.864;25.986;2023-04-27T17:30:40;101129.75;;;12.99;70.74
58245;BME280;44550;43.864;25.986;2023-04-27T17:34:45;101129.75;;;13.04;70.13
58245;BME280;44550;43.864;25.986;2023-04-27T17:38:48;101127.06;;;12.81;72.07
58245;BME280;44550;43.864;25.986;2023-04-27T17:43:01;101137.53;;;12.68;72.89
58245;BME280;44550;43.864;25.986;2023-04-27T17:47:06;101135.75;;;12.66;72.19
58245;BME280;44550;43.864;25.986;2023-04-27T17:51:09;101150.69;;;12.84;71.84
58245;BME280;44550;43.864;25.986;2023-04-27T17:55:15;101149.03;;;13.07;70.81
58245;BME280;44550;43.864;25.986;2023-04-27T17:59:19;101154.34;;;13.24;69.65
58245;BME280;44550;43.864;25.986;2023-04-27T18:03:30;101156.16;;;13.31;68.66
58245;BME280;44550;43.864;25.986;2023-04-27T18:07:34;101156.94;;;13.23;69.05
58245;BME280;44550;43.864;25.986;2023-04-27T18:16:13;101156.66;;;12.49;72.36
58245;BME280;44550;43.864;25.986;2023-04-27T18:20:20;101161.81;;;12.37;72.68
58245;BME280;44550;43.864;25.986;2023-04-27T18:24:24;101170.63;;;12.48;71.60
58245;BME280;44550;43.864;25.986;2023-04-27T18:28:32;101171.56;;;12.59;69.20
58245;BME280;44550;43.864;25.986;2023-04-27T18:32:36;101181.25;;;12.71;67.21
58245;BME280;44550;43.864;25.986;2023-04-27T18:36:39;101189.09;;;12.68;67.10
58245;BME280;44550;43.864;25.986;2023-04-27T18:40:47;101202.28;;;12.77;67.03
58245;BME280;44550;43.864;25.986;2023-04-27T18:44:52;101204.06;;;12.78;67.13
58245;BME280;44550;43.864;25.986;2023-04-27T18:48:57;101206.44;;;12.41;69.44
58245;BME280;44550;43.864;25.986;2023-04-27T18:53:00;101216.97;;;12.48;69.61
58245;BME280;44550;43.864;25.986;2023-04-27T18:57:01;101227.59;;;12.69;69.64
58245;BME280;44550;43.864;25.986;2023-04-27T19:01:01;101251.50;;;13.18;68.00
58245;BME280;44550;43.864;25.986;2023-04-27T19:05:02;101257.75;;;13.45;67.24
58245;BME280;44550;43.864;25.986;2023-04-27T19:09:23;101262.94;;;13.32;69.68
58245;BME280;44550;43.864;25.986;2023-04-27T19:13:31;101247.22;;;13.42;70.93
58245;BME280;44550;43.864;25.986;2023-04-27T19:17:39;101261.28;;;13.60;70.26
58245;BME280;44550;43.864;25.986;2023-04-27T19:21:58;101256.91;;;13.67;70.42
58245;BME280;44550;43.864;25.986;2023-04-27T19:26:26;101256.97;;;13.78;69.96
58245;BME280;44550;43.864;25.986;2023-04-27T19:30:50;101253.47;;;14.03;69.65
58245;BME280;44550;43.864;25.986;2023-04-27T19:34:55;101249.09;;;14.30;67.83
58245;BME280;44550;43.864;25.986;2023-04-27T19:38:56;101252.59;;;14.40;66.02
58245;BME280;44550;43.864;25.986;2023-04-27T19:42:59;101263.06;;;13.74;67.81
58245;BME280;44550;43.864;25.986;2023-04-27T19:47:04;101266.50;;;13.47;69.11
58245;BME280;44550;43.864;25.986;2023-04-27T19:51:07;101264.66;;;13.24;69.88
58245;BME280;44550;43.864;25.986;2023-04-27T19:55:07;101258.50;;;13.22;71.89
58245;BME280;44550;43.864;25.986;2023-04-27T19:59:10;101260.13;;;12.99;72.58
58245;BME280;44550;43.864;25.986;2023-04-27T20:03:10;101260.88;;;12.76;75.87
58245;BME280;44550;43.864;25.986;2023-04-27T20:07:15;101257.13;;;12.39;80.08
58245;BME280;44550;43.864;25.986;2023-04-27T20:11:15;101251.72;;;12.19;82.09
58245;BME280;44550;43.864;25.986;2023-04-27T20:15:23;101248.53;;;11.65;82.93
58245;BME280;44550;43.864;25.986;2023-04-27T20:19:24;101242.41;;;11.62;83.01
58245;BME280;44550;43.864;25.986;2023-04-27T20:23:25;101249.47;;;11.70;81.70
58245;BME280;44550;43.864;25.986;2023-04-27T20:27:27;101258.59;;;12.08;80.05
58245;BME280;44550;43.864;25.986;2023-04-27T20:31:30;101291.25;;;12.42;79.25
58245;BME280;44550;43.864;25.986;2023-04-27T20:35:44;101307.53;;;12.06;84.21
58245;BME280;44550;43.864;25.986;2023-04-27T20:40:07;101303.31;;;12.23;84.02
58245;BME280;44550;43.864;25.986;2023-04-27T20:44:11;101296.41;;;12.33;80.20
58245;BME280;44550;43.864;25.986;2023-04-27T20:48:16;101304.16;;;12.20;80.70
58245;BME280;44550;43.864;25.986;2023-04-27T20:52:30;101319.81;;;12.10;83.75
58245;BME280;44550;43.864;25.986;2023-04-27T20:56:37;101323.22;;;12.04;86.70
58245;BME280;44550;43.864;25.986;2023-04-27T21:00:47;101330.81;;;11.81;90.44
58245;BME280;44550;43.864;25.986;2023-04-27T21:04:57;101333.13;;;11.53;100.00
58245;BME280;44550;43.864;25.986;2023-04-27T21:09:04;101351.59;;;11.02;100.00
58245;BME280;44550;43.864;25.986;2023-04-27T21:13:19;101359.41;;;10.44;100.00